FW5264 Weather Reports


Display with metric or nautical units.
time (UTC)temp
F
wind
direction
speed
MPH
gust
MPH
rain 1hr
in
rain 24hr
in
rain mn
in
humidity
%
barometer
mb
20210926014828 67 360 0.0 0.0 0.03 0.53 0.53 100 1013.5
20210926013828 67 350 0.0 1.0 0.03 0.52 0.52 99 1013.5
20210926012828 67 360 0.0 0.0 0.03 0.52 0.52 99 1013.7
20210926011828 68 44 0.0 0.0 0.04 0.52 0.52 100 1013.7
20210926010911 68 90 0.0 0.0 0.03 0.51 0.51 99 1013.9
20210926005929 68 78 0.0 1.0 0.02 0.50 0.50 100 1013.9
20210926004927 68 45 0.0 0.0 0.02 0.50 0.50 100 1014.0
20210926003931 68 360 0.0 1.0 0.01 0.49 0.49 99 1013.9
20210926003829 68 6 0.0 3.0 0.01 0.49 0.49 100 1014.1
20210926002912 68 65 0.0 1.0 0.01 0.49 0.49 100 1014.1
20210926001929 68 360 0.0 0.0 0.00 0.48 0.48 100 1014.1
20210926000928 68 61 0.0 0.0 0.00 0.48 0.48 99 1014.3
20210926000827 68 21 0.0 3.0 0.00 0.48 0.48 99 1014.3
20210925235829 68 61 1.0 2.0 0.00 0.48 0.48 98 1014.3
20210925234913 68 270 0.0 0.0 0.00 0.48 0.48 99 1014.5
20210925233929 69 45 0.0 0.0 0.00 0.48 0.48 98 1014.3
20210925232929 69 18 0.0 1.0 0.00 0.48 0.48 98 1014.3
20210925232010 69 6 0.0 2.0 0.00 0.48 0.48 99 1014.4
20210925231931 69 360 0.0 0.0 0.00 0.48 0.48 98 1014.4
20210925231012 69 322 0.0 2.0 0.00 0.49 0.48 99 1014.4
20210925230028 69 45 0.0 0.0 0.00 0.49 0.48 98 1014.5
20210925225028 70 360 0.0 0.0 0.00 0.49 0.48 99 1014.4
20210925224027 70 181 0.0 0.0 0.00 0.49 0.48 99 1014.4
20210925223112 70 202 0.0 0.0 0.01 0.49 0.48 98 1014.5
20210925222128 70 202 0.0 0.0 0.03 0.49 0.48 97 1014.6
20210925221128 70 202 0.0 0.0 0.13 0.49 0.48 98 1014.8
20210925220226 71 90 0.0 0.0 0.44 0.49 0.48 97 1014.8
20210925215231 71 180 0.0 0.0 0.44 0.49 0.48 97 1014.8
20210925214228 70 45 0.0 0.0 0.44 0.49 0.48 98 1014.8
20210925213227 70 112 0.0 0.0 0.43 0.48 0.47 97 1014.8
20210925212229 70 112 0.0 0.0 0.41 0.46 0.45 97 1015.0
20210925211312 70 95 0.0 1.0 0.36 0.41 0.38 96 1015.2
20210925211211 70 90 0.0 0.0 0.34 0.39 0.35 97 1015.3
20210925210229 70 180 0.0 1.0 0.01 0.05 0.04 96 1015.1
20210925205226 70 47 0.0 3.0 0.01 0.05 0.04 96 1015.0
20210925204228 70 180 0.0 2.0 0.01 0.05 0.04 96 1014.9
20210925203310 70 67 0.0 0.0 0.01 0.05 0.04 95 1015.1
20210925202328 70 112 0.0 0.0 0.01 0.05 0.04 96 1015.1
20210925201329 70 112 0.0 0.0 0.01 0.05 0.04 95 1015.3
20210925200427 70 94 1.0 4.0 0.00 0.04 0.03 96 1015.3
20210925195428 70 48 0.0 0.0 0.00 0.04 0.03 96 1015.4
20210925194427 70 360 0.0 1.0 0.00 0.04 0.03 95 1015.5
20210925193426 70 337 0.0 0.0 0.00 0.04 0.03 94 1015.5
20210925192513 70 360 0.0 0.0 0.00 0.04 0.03 95 1015.6
20210925191528 70 87 0.0 1.0 0.00 0.04 0.03 94 1015.7
20210925190528 70 85 1.0 3.0 0.00 0.04 0.03 94 1015.7
20210925190429 69 111 0.0 0.0 0.00 0.04 0.03 93 1015.9
20210925185429 70 83 1.0 3.0 0.00 0.04 0.03 94 1016.0
20210925184512 70 90 1.0 4.0 0.02 0.04 0.03 94 1016.0
20210925183528 70 91 0.0 1.0 0.02 0.04 0.03 94 1016.1
20210925182527 70 360 0.0 0.0 0.02 0.04 0.03 94 1016.0
20210925181529 70 138 1.0 3.0 0.02 0.04 0.03 94 1016.3
20210925180610 70 315 0.0 0.0 0.02 0.04 0.03 93 1016.4
20210925175628 69 79 1.0 3.0 0.02 0.04 0.03 91 1016.4
20210925174627 69 45 0.0 0.0 0.01 0.03 0.01 91 1016.7
20210925174528 69 67 0.0 3.0 0.00 0.02 0.01 90 1016.7
20210925173611 69 49 1.0 3.0 0.00 0.02 0.01 89 1016.8
20210925172627 69 111 0.0 5.0 0.00 0.02 0.01 86 1016.9
20210925171714 70 99 3.0 8.0 0.00 0.02 0.01 84 1017.0
20210925170727 71 91 2.0 4.0 0.00 0.02 0.01 83 1017.1
20210925165727 72 111 2.0 4.0 0.00 0.02 0.01 79 1017.1
20210925164728 73 51 1.0 4.0 0.00 0.02 0.01 79 1017.1
20210925163826 72 55 1.0 2.0 0.00 0.02 0.01 80 1017.1
20210925162828 72 61 0.0 1.0 0.00 0.02 0.01 81 1017.3
20210925161826 72 104 1.0 4.0 0.00 0.02 0.01 82 1017.4
20210925161727 71 90 0.0 0.0 0.00 0.02 0.01 83 1017.4
20210925160729 71 31 1.0 2.0 0.00 0.02 0.01 81 1017.5
20210925155729 72 117 0.0 2.0 0.00 0.02 0.01 82 1017.5
20210925154827 72 53 1.0 3.0 0.00 0.02 0.01 82 1017.5
20210925153909 72 96 3.0 6.0 0.00 0.02 0.01 83 1017.5
20210925152927 72 111 3.0 5.0 0.01 0.02 0.01 85 1017.6
20210925151927 71 112 1.0 2.0 0.01 0.02 0.01 87 1017.7
20210925150927 71 349 1.0 5.0 0.01 0.02 0.01 89 1017.8
20210925150010 69 91 2.0 4.0 0.01 0.02 0.01 91 1017.9
20210925145027 69 90 0.0 1.0 0.01 0.02 0.01 93 1018.1
20210925144026 68 360 0.0 2.0 0.01 0.02 0.01 92 1018.2
20210925143026 68 360 1.0 4.0 0.00 0.01 0.00 93 1018.2
20210925142029 68 81 0.0 2.0 0.00 0.01 0.00 93 1018.2
20210925141028 68 1 0.0 1.0 0.00 0.01 0.00 94 1018.3
20210925140110 67 60 0.0 0.0 0.00 0.01 0.00 95 1018.5
20210925140030 67 55 1.0 3.0 0.00 0.01 0.00 94 1018.5
20210925135126 67 90 0.0 0.0 0.00 0.01 0.00 94 1018.5
20210925134226 67 340 0.0 1.0 0.00 0.01 0.00 94 1018.5
20210925133310 67 49 0.0 1.0 0.00 0.01 0.00 95 1018.5
20210925132326 67 129 0.0 1.0 0.00 0.01 0.00 95 1018.7
20210925131326 67 45 0.0 0.0 0.00 0.01 0.00 95 1018.7
20210925130329 67 360 0.0 0.0 0.00 0.01 0.00 94 1018.4
20210925125329 67 108 0.0 0.0 0.00 0.01 0.00 94 1018.5
20210925125227 67 92 0.0 2.0 0.00 0.01 0.00 94 1018.5
20210925124309 67 41 0.0 2.0 0.00 0.01 0.00 96 1018.5
20210925123327 66 90 0.0 0.0 0.00 0.01 0.00 96 1018.5
20210925122425 65 45 0.0 0.0 0.00 0.01 0.00 95 1018.7
20210925121427 65 349 1.0 2.0 0.00 0.01 0.00 95 1018.7
20210925120511 66 19 1.0 4.0 0.00 0.01 0.00 95 1018.7
20210925115528 65 73 1.0 4.0 0.00 0.01 0.00 97 1018.7
20210925114528 65 41 1.0 3.0 0.00 0.01 0.00 97 1018.7
20210925113527 65 344 0.0 2.0 0.00 0.01 0.00 97 1018.9
20210925112527 65 360 0.0 1.0 0.00 0.01 0.00 98 1019.0
20210925111526 65 360 0.0 1.0 0.00 0.01 0.00 98 1018.9
20210925111427 65 4 0.0 2.0 0.00 0.01 0.00 98 1018.9
20210925110427 65 360 0.0 1.0 0.00 0.01 0.00 98 1018.6
20210925110327 65 360 0.0 2.0 0.00 0.01 0.00 97 1018.6
20210925105410 64 360 0.0 0.0 0.00 0.01 0.00 97 1018.7
20210925105327 64 360 0.0 2.0 0.00 0.01 0.00 98 1018.7
20210925104327 64 356 0.0 0.0 0.00 0.01 0.00 97 1018.6
20210925103329 64 20 1.0 3.0 0.00 0.01 0.00 98 1018.5
20210925102326 64 360 0.0 1.0 0.00 0.01 0.00 98 1018.7
20210925102228 64 360 0.0 1.0 0.00 0.01 0.00 98 1018.7
20210925101326 63 315 0.0 0.0 0.00 0.01 0.00 97 1018.6
20210925100328 63 360 0.0 0.0 0.00 0.01 0.00 97 1018.5
20210925095410 64 360 0.0 0.0 0.00 0.01 0.00 97 1018.5
20210925094429 64 360 0.0 1.0 0.00 0.01 0.00 98 1018.2
20210925093526 64 358 0.0 2.0 0.00 0.01 0.00 98 1018.2
20210925092527 64 45 0.0 0.0 0.00 0.01 0.00 97 1018.2
20210925092427 64 45 0.0 0.0 0.00 0.01 0.00 98 1018.2
20210925091427 64 45 0.0 0.0 0.00 0.01 0.00 97 1018.4
20210925090526 64 45 0.0 0.0 0.00 0.01 0.00 98 1018.3
20210925085511 64 337 0.0 0.0 0.00 0.01 0.00 97 1018.3
20210925084528 64 337 0.0 0.0 0.00 0.01 0.00 98 1018.4
20210925083609 63 337 0.0 1.0 0.00 0.01 0.00 97 1018.3
20210925083529 63 340 0.0 0.0 0.00 0.01 0.00 98 1018.2
20210925082526 63 360 0.0 0.0 0.00 0.01 0.00 97 1018.5
20210925082426 63 360 0.0 0.0 0.00 0.01 0.00 97 1018.4
20210925081426 63 360 0.0 1.0 0.00 0.01 0.00 98 1018.5
20210925081311 63 360 0.0 0.0 0.00 0.01 0.00 98 1018.5
20210925080328 63 270 0.0 0.0 0.00 0.01 0.00 96 1018.5
20210925075325 63 270 0.0 0.0 0.00 0.01 0.00 97 1018.7
20210925074326 63 270 0.0 0.0 0.00 0.01 0.00 97 1018.5
20210925073326 63 270 0.0 0.0 0.00 0.01 0.00 97 1018.7
20210925072327 63 270 0.0 0.0 0.00 0.01 0.00 96 1018.7
20210925071328 63 270 0.0 0.0 0.00 0.01 0.00 95 1018.9
20210925070327 63 270 0.0 0.0 0.00 0.01 0.00 94 1018.9
20210925065326 63 270 0.0 0.0 0.00 0.01 0.00 93 1018.9
20210925064327 63 270 0.0 0.0 0.00 0.01 0.00 93 1018.9
20210925063328 64 270 0.0 0.0 0.00 0.01 0.00 92 1018.8
20210925062327 64 270 0.0 0.0 0.00 0.01 0.00 93 1018.9
20210925061426 64 270 0.0 0.0 0.00 0.01 0.00 93 1018.8
20210925061326 64 270 0.0 1.0 0.00 0.01 0.00 93 1018.9
20210925060328 64 270 0.0 0.0 0.00 0.01 0.00 93 1018.8
20210925055425 64 270 0.0 0.0 0.00 0.01 0.00 92 1018.7
20210925054427 65 270 0.0 0.0 0.00 0.01 0.00 93 1018.9
20210925053426 65 270 0.0 0.0 0.00 0.01 0.00 93 1018.9
20210925053311 65 270 0.0 0.0 0.00 0.01 0.00 92 1018.9
20210925053227 65 270 0.0 0.0 0.00 0.01 0.00 92 1018.9
20210925052325 65 270 0.0 0.0 0.00 0.01 0.00 91 1019.1
20210925051327 65 270 0.0 0.0 0.00 0.01 0.00 92 1019.0
20210925050328 65 270 0.0 0.0 0.00 0.01 0.00 91 1019.0
20210925045425 64 270 0.0 0.0 0.00 0.01 0.00 91 1019.2
20210925044427 65 270 0.0 0.0 0.00 0.01 0.00 93 1019.0
20210925043427 64 270 0.0 0.0 0.00 0.01 0.00 93 1019.1
20210925042425 64 270 0.0 0.0 0.00 0.01 0.00 93 1019.1
20210925042327 64 270 0.0 0.0 0.00 0.01 0.00 93 1019.2
20210925041327 64 270 0.0 0.0 0.00 0.01 0.00 94 1019.2
20210925040327 65 270 0.0 0.0 0.00 0.01 0.00 95 1019.0
20210925035334 65 270 0.0 0.0 0.00 0.01 0.01 95 1019.1
20210925034418 65 270 0.0 0.0 0.00 0.01 0.01 95 1019.2
20210925034333 65 270 0.0 0.0 0.00 0.01 0.01 95 1019.2
20210925033333 64 270 0.0 1.0 0.00 0.01 0.01 94 1019.2
20210925032334 65 225 0.0 0.0 0.00 0.01 0.01 95 1019.1
20210925031334 65 225 0.0 0.0 0.00 0.01 0.01 96 1019.1
20210925030433 65 225 0.0 0.0 0.00 0.01 0.01 95 1018.9
20210925025433 65 202 0.0 0.0 0.00 0.01 0.01 96 1018.9
20210925024434 65 202 0.0 0.0 0.00 0.01 0.01 95 1018.9
20210925023533 66 270 0.0 0.0 0.00 0.01 0.01 96 1018.8
20210925022534 66 270 0.0 0.0 0.00 0.01 0.01 96 1018.9
20210925021616 66 270 0.0 0.0 0.00 0.01 0.01 95 1019.1
20210925021533 66 270 0.0 0.0 0.00 0.01 0.01 95 1019.0
20210925020533 66 270 0.0 0.0 0.00 0.01 0.01 94 1018.9
20210925015533 66 270 0.0 0.0 0.00 0.01 0.01 94 1018.8